Time;durP1;ratioP1;P1;durP2;ratioP2;P2;SDS_P1;SDS_P2;PMS_P1;PMS_P2;Temp;Humidity;BMP_temperature;BMP_pressure;BME280_temperature;BME280_humidity;BME280_pressure;Samples;Min_cycle;Max_cycle;Signal;HPM_P1;HPM_P2
2022/02/11 00:08:59;;;;;;;0.90;0.90;;;-3.30;99.90;;;;;;5048030;28;20217;-75
2022/02/11 00:11:39;;;;;;;0.80;0.80;;;-3.40;99.90;;;;;;5041835;28;20297;-75
2022/02/11 00:14:08;;;;;;;0.70;0.70;;;-3.40;99.90;;;;;;5045606;28;20201;-76
2022/02/11 00:16:36;;;;;;;0.80;0.80;;;-3.50;99.90;;;;;;5036521;28;20218;-76
2022/02/11 00:19:02;;;;;;;0.70;0.70;;;-3.50;99.90;;;;;;5041540;28;20190;-76
2022/02/11 00:21:29;;;;;;;0.90;0.90;;;-3.60;99.90;;;;;;5046177;28;20201;-74
2022/02/11 00:23:56;;;;;;;0.85;0.85;;;-3.60;99.90;;;;;;5047949;28;20233;-73
2022/02/11 00:26:30;;;;;;;0.95;0.95;;;-3.70;99.90;;;;;;5048482;28;20573;-74
2022/02/11 00:29:53;;;;;;;0.80;0.80;;;-3.70;99.90;;;;;;5042522;28;20730;-74
2022/02/11 00:34:13;;;;;;;0.80;0.80;;;-3.60;99.90;;;;;;5047449;28;20259;-75
2022/02/11 00:36:50;;;;;;;0.80;0.80;;;-3.60;99.90;;;;;;5048496;28;20228;-76
2022/02/11 01:03:18;;;;;;;0.80;0.80;;;-3.70;99.90;;;;;;5047063;28;20208;-75
2022/02/11 01:05:44;;;;;;;0.80;0.80;;;-3.70;99.90;;;;;;5046771;28;20229;-76
2022/02/11 01:08:09;;;;;;;0.80;0.80;;;-3.70;99.90;;;;;;5046836;28;20213;-76
2022/02/11 01:10:35;;;;;;;0.80;0.80;;;-3.70;99.90;;;;;;5047571;28;20287;-76
2022/02/11 01:13:01;;;;;;;0.80;0.80;;;-3.70;99.90;;;;;;5044372;28;20205;-75
2022/02/11 01:15:29;;;;;;;0.80;0.80;;;-3.70;99.90;;;;;;5040600;28;20284;-75
2022/02/11 01:17:58;;;;;;;0.80;0.80;;;-3.70;99.90;;;;;;5045501;28;20193;-76
2022/02/11 01:38:05;;;;;;;0.80;0.80;;;-3.80;99.90;;;;;;5047835;28;20202;-75
2022/02/11 01:51:48;;;;;;;0.80;0.80;;;-3.80;99.90;;;;;;5051259;28;20197;-76
2022/02/11 01:55:00;;;;;;;0.80;0.80;;;-3.70;99.90;;;;;;5049891;28;20201;-76
2022/02/11 02:02:07;;;;;;;0.90;0.90;;;-3.90;99.90;;;;;;5049947;28;20215;-76
2022/02/11 02:13:01;;;;;;;0.75;0.75;;;-4.00;99.90;;;;;;5048105;28;20266;-75
2022/02/11 02:24:01;;;;;;;0.80;0.80;;;-4.10;99.90;;;;;;5028382;28;20218;-75
2022/02/11 02:50:18;;;;;;;0.80;0.80;;;-4.40;99.90;;;;;;5049462;28;20574;-75
2022/02/11 02:58:24;;;;;;;0.90;0.90;;;-4.30;99.90;;;;;;5049529;28;20294;-75
2022/02/11 04:57:00;;;;;;;0.90;0.90;;;-4.80;99.90;;;;;;5033327;28;20235;-75
2022/02/11 04:59:36;;;;;;;0.80;0.80;;;-4.80;99.90;;;;;;5029342;28;20593;-76
2022/02/11 05:02:02;;;;;;;0.82;0.82;;;-4.90;99.90;;;;;;5029679;28;20606;-75
2022/02/11 05:04:29;;;;;;;0.90;0.90;;;-5.00;99.90;;;;;;5030560;28;20301;-75
2022/02/11 05:06:55;;;;;;;0.80;0.80;;;-5.00;99.90;;;;;;5038516;28;20668;-76
2022/02/11 05:09:21;;;;;;;0.90;0.90;;;-5.10;99.90;;;;;;5038606;28;20206;-75
2022/02/11 05:11:47;;;;;;;0.90;0.90;;;-5.20;99.90;;;;;;5039496;28;20197;-76
2022/02/11 05:14:13;;;;;;;0.77;0.77;;;-5.30;99.90;;;;;;5031919;28;20678;-75
2022/02/11 05:16:39;;;;;;;0.83;0.83;;;-5.40;99.90;;;;;;5027776;28;20612;-76
2022/02/11 05:19:04;;;;;;;0.83;0.83;;;-5.40;99.90;;;;;;5036007;28;20345;-75
2022/02/11 05:21:30;;;;;;;1.97;1.77;;;-5.40;99.90;;;;;;5028350;28;20233;-75
2022/02/11 05:23:56;;;;;;;0.83;0.83;;;-5.50;99.90;;;;;;5039294;28;20597;-75
2022/02/11 05:26:21;;;;;;;0.80;0.80;;;-5.40;99.90;;;;;;5028125;28;20201;-74
2022/02/11 05:28:47;;;;;;;0.73;0.73;;;-5.20;99.90;;;;;;5044119;28;20198;-75
2022/02/11 05:31:13;;;;;;;1.90;1.60;;;-5.20;99.90;;;;;;5024744;28;20562;-76
2022/02/11 05:33:38;;;;;;;0.80;0.80;;;-5.10;99.90;;;;;;5049479;28;20584;-76
2022/02/11 05:36:04;;;;;;;2.20;1.57;;;-5.10;99.90;;;;;;5036483;28;20588;-76
2022/02/11 05:38:30;;;;;;;1.67;1.57;;;-5.10;99.90;;;;;;5049153;28;20220;-76
2022/02/11 05:40:56;;;;;;;0.90;0.90;;;-5.00;99.90;;;;;;5036021;28;20198;-75
2022/02/11 05:43:22;;;;;;;0.90;0.90;;;-5.10;99.90;;;;;;5051463;28;20202;-76
2022/02/11 05:45:47;;;;;;;0.90;0.90;;;-5.10;99.90;;;;;;5018151;28;20282;-74
2022/02/11 05:48:13;;;;;;;0.90;0.90;;;-5.20;99.90;;;;;;5050442;28;20587;-73
2022/02/11 05:50:38;;;;;;;0.90;0.90;;;-5.20;99.90;;;;;;5034889;28;20590;-74
2022/02/11 05:53:09;;;;;;;0.90;0.90;;;-5.30;99.90;;;;;;5051245;28;20237;-74
2022/02/11 05:55:35;;;;;;;0.90;0.90;;;-5.40;99.90;;;;;;5049463;28;20209;-74
2022/02/11 05:58:01;;;;;;;0.90;0.90;;;-5.60;99.90;;;;;;5047525;28;20228;-74
2022/02/11 06:00:27;;;;;;;0.80;0.80;;;-5.70;99.90;;;;;;5039461;28;20247;-75
2022/02/11 06:02:53;;;;;;;0.87;0.87;;;-5.70;99.90;;;;;;5047357;28;20657;-74
2022/02/11 06:05:19;;;;;;;0.90;0.90;;;-5.80;99.90;;;;;;5047596;28;20295;-75
2022/02/11 06:07:45;;;;;;;0.90;0.90;;;-5.70;99.90;;;;;;5048683;28;20209;-75
2022/02/11 06:10:12;;;;;;;0.90;0.90;;;-5.60;99.90;;;;;;5049855;28;20224;-75
2022/02/11 06:12:37;;;;;;;0.80;0.80;;;-5.60;99.90;;;;;;5050758;28;20224;-76
2022/02/11 06:15:04;;;;;;;0.90;0.90;;;-5.50;99.90;;;;;;5049910;28;20207;-74
2022/02/11 06:17:29;;;;;;;0.90;0.90;;;-5.50;99.90;;;;;;5049721;28;20795;-75
2022/02/11 06:19:57;;;;;;;0.80;0.80;;;-5.60;99.90;;;;;;5047480;28;20284;-74
2022/02/11 06:22:23;;;;;;;0.90;0.90;;;-5.60;99.90;;;;;;5049550;28;20255;-72
2022/02/11 06:24:48;;;;;;;2.70;2.50;;;-5.70;99.90;;;;;;5049773;28;20237;-74
2022/02/11 06:27:17;;;;;;;0.90;0.90;;;-5.70;99.90;;;;;;5049635;28;20237;-75
2022/02/11 06:29:43;;;;;;;0.90;0.90;;;-5.80;99.90;;;;;;5048315;28;20203;-74
2022/02/11 06:32:09;;;;;;;0.80;0.80;;;-5.70;99.90;;;;;;5049790;28;20579;-74
2022/02/11 06:34:34;;;;;;;0.90;0.90;;;-5.70;99.90;;;;;;5048084;28;20224;-75
2022/02/11 06:37:00;;;;;;;0.80;0.80;;;-5.60;99.90;;;;;;5040933;28;20198;-74
2022/02/11 06:39:26;;;;;;;0.80;0.80;;;-5.60;99.90;;;;;;5051003;28;20208;-75
2022/02/11 06:41:53;;;;;;;0.80;0.80;;;-5.40;99.90;;;;;;5050765;28;20201;-75
2022/02/11 06:44:18;;;;;;;0.80;0.80;;;-5.20;99.90;;;;;;5048257;28;20692;-75
2022/02/11 06:46:44;;;;;;;0.90;0.90;;;-4.70;99.90;;;;;;5049333;28;20286;-75
2022/02/11 06:49:10;;;;;;;0.93;0.93;;;-4.50;99.90;;;;;;5035968;28;20210;-74
2022/02/11 06:51:35;;;;;;;0.80;0.80;;;-4.50;99.90;;;;;;5031461;28;20210;-74
2022/02/11 06:54:01;;;;;;;0.80;0.80;;;-4.40;99.90;;;;;;5048372;28;20236;-75
2022/02/11 06:56:27;;;;;;;0.90;0.90;;;-4.40;99.90;;;;;;5047649;28;20225;-75
2022/02/11 06:58:55;;;;;;;0.80;0.80;;;-4.30;99.90;;;;;;5048786;28;20280;-74
2022/02/11 07:01:22;;;;;;;0.90;0.90;;;-4.20;99.90;;;;;;5048566;28;20205;-74
2022/02/11 07:03:48;;;;;;;0.83;0.83;;;-4.20;99.90;;;;;;5047784;28;20304;-74
2022/02/11 07:06:14;;;;;;;1.00;1.00;;;-4.20;99.90;;;;;;5050016;28;20209;-74
2022/02/11 07:08:40;;;;;;;0.80;0.80;;;-4.30;99.90;;;;;;5047506;28;20266;-74
2022/02/11 07:11:06;;;;;;;0.90;0.90;;;-4.20;99.90;;;;;;5039615;28;20209;-75
2022/02/11 07:13:31;;;;;;;0.80;0.80;;;-4.20;99.90;;;;;;5048447;28;20297;-74
2022/02/11 07:15:57;;;;;;;0.80;0.80;;;-4.10;99.90;;;;;;5048733;28;20197;-74
2022/02/11 07:18:23;;;;;;;0.88;0.88;;;-4.00;99.90;;;;;;5048481;28;20201;-75
2022/02/11 07:20:49;;;;;;;3.07;2.33;;;-3.90;99.90;;;;;;5049633;28;20222;-75
2022/02/11 07:23:15;;;;;;;0.80;0.80;;;-3.90;99.90;;;;;;5048639;28;20213;-75
2022/02/11 07:25:42;;;;;;;0.80;0.80;;;-3.90;99.90;;;;;;5048550;28;20202;-75
2022/02/11 07:28:08;;;;;;;0.80;0.80;;;-3.90;99.90;;;;;;5049289;28;20214;-76
2022/02/11 07:30:34;;;;;;;0.90;0.90;;;-3.90;99.90;;;;;;5048819;28;20202;-75
2022/02/11 07:33:00;;;;;;;0.80;0.80;;;-3.90;99.90;;;;;;5041941;28;20224;-75
2022/02/11 07:35:26;;;;;;;0.80;0.80;;;-4.00;99.90;;;;;;5048150;28;20255;-75
2022/02/11 07:37:52;;;;;;;0.80;0.80;;;-4.00;99.90;;;;;;5048997;28;20618;-76
2022/02/11 07:40:18;;;;;;;0.80;0.80;;;-3.90;99.90;;;;;;5049233;28;20209;-75
2022/02/11 07:42:46;;;;;;;0.85;0.85;;;-3.90;99.90;;;;;;5044766;28;20212;-75
2022/02/11 07:45:13;;;;;;;0.90;0.90;;;-3.80;99.90;;;;;;5048285;28;20311;-75
2022/02/11 07:47:39;;;;;;;0.80;0.80;;;-3.80;99.90;;;;;;5049188;28;20248;-74
2022/02/11 07:50:06;;;;;;;0.90;0.90;;;-3.70;99.90;;;;;;5048155;28;20231;-74
2022/02/11 07:52:32;;;;;;;0.80;0.80;;;-3.60;99.90;;;;;;5045460;28;20308;-74
2022/02/11 07:54:57;;;;;;;0.85;0.85;;;-3.60;99.90;;;;;;5046944;28;20280;-74
2022/02/11 07:57:24;;;;;;;0.80;0.80;;;-3.50;99.90;;;;;;5049041;28;20681;-74
2022/02/11 07:59:50;;;;;;;0.70;0.70;;;-3.50;99.90;;;;;;5046710;28;20225;-74
2022/02/11 08:02:16;;;;;;;0.80;0.80;;;-3.50;99.90;;;;;;5048028;28;20296;-75
2022/02/11 08:04:42;;;;;;;0.90;0.90;;;-3.40;99.90;;;;;;5047873;28;20335;-74
2022/02/11 08:07:08;;;;;;;0.80;0.80;;;-3.40;99.90;;;;;;5045311;28;20258;-75
2022/02/11 08:09:34;;;;;;;0.80;0.80;;;-3.20;99.90;;;;;;5032375;28;20665;-74
2022/02/11 08:12:00;;;;;;;0.70;0.70;;;-3.10;99.90;;;;;;5048685;28;20329;-74
2022/02/11 08:14:26;;;;;;;0.80;0.80;;;-3.10;99.90;;;;;;5047464;28;20319;-75
2022/02/11 08:16:52;;;;;;;0.80;0.80;;;-3.00;99.90;;;;;;5048293;28;21218;-75
2022/02/11 08:19:19;;;;;;;0.77;0.77;;;-2.90;99.90;;;;;;5048969;28;20239;-74
2022/02/11 08:21:46;;;;;;;0.80;0.80;;;-2.80;99.90;;;;;;5049964;28;20668;-74
2022/02/11 08:24:13;;;;;;;0.70;0.70;;;-2.80;99.90;;;;;;5049772;28;20201;-74
2022/02/11 08:26:38;;;;;;;0.80;0.80;;;-2.70;99.90;;;;;;5047325;28;20577;-74
2022/02/11 08:29:04;;;;;;;0.70;0.70;;;-2.60;99.90;;;;;;5039034;28;20206;-75
2022/02/11 08:31:33;;;;;;;0.80;0.80;;;-2.40;99.90;;;;;;5046029;28;20288;-75
2022/02/11 08:33:58;;;;;;;0.70;0.70;;;-2.40;99.90;;;;;;5044817;28;20212;-75
2022/02/11 08:36:24;;;;;;;0.75;0.75;;;-2.40;99.90;;;;;;5048362;28;20211;-75
2022/02/11 08:38:50;;;;;;;1.10;1.10;;;-2.50;99.90;;;;;;5047333;28;20212;-75
2022/02/11 08:41:15;;;;;;;0.80;0.80;;;-2.60;99.90;;;;;;5048484;28;20209;-74
2022/02/11 08:43:41;;;;;;;0.90;0.90;;;-2.70;99.90;;;;;;5047126;28;20209;-75
2022/02/11 08:46:08;;;;;;;1.42;1.33;;;-2.70;99.90;;;;;;5045116;28;20615;-75
2022/02/11 08:48:34;;;;;;;0.77;0.77;;;-2.70;99.90;;;;;;5046024;28;20209;-75
2022/02/11 08:50:59;;;;;;;7.38;1.77;;;-2.70;99.90;;;;;;5046442;28;20209;-75
2022/02/11 08:53:25;;;;;;;0.75;0.75;;;-2.50;99.90;;;;;;5045844;28;20201;-75
2022/02/11 08:55:51;;;;;;;0.80;0.80;;;-2.30;99.90;;;;;;5044799;28;20198;-75
2022/02/11 08:58:19;;;;;;;0.80;0.80;;;-2.10;99.90;;;;;;5046911;28;20301;-75
2022/02/11 09:00:49;;;;;;;0.70;0.70;;;-1.90;99.90;;;;;;5047010;28;20199;-75
2022/02/11 09:03:15;;;;;;;0.70;0.70;;;-1.80;99.90;;;;;;5046980;28;20774;-75
2022/02/11 09:05:41;;;;;;;0.70;0.70;;;-1.70;99.90;;;;;;5047074;28;20205;-75
2022/02/11 09:08:07;;;;;;;0.63;0.63;;;-1.60;99.90;;;;;;5049184;28;20260;-75
2022/02/11 09:10:32;;;;;;;0.70;0.70;;;-1.50;99.90;;;;;;5034208;28;20737;-75
2022/02/11 09:13:00;;;;;;;0.70;0.70;;;-1.40;99.90;;;;;;5048165;28;20219;-75
2022/02/11 09:15:27;;;;;;;0.70;0.70;;;-1.30;99.90;;;;;;5047114;28;20209;-75
2022/02/11 09:17:54;;;;;;;0.80;0.80;;;-1.10;99.90;;;;;;5046843;28;20213;-75
2022/02/11 09:20:28;;;;;;;0.80;0.80;;;-1.00;99.90;;;;;;5047834;28;20204;-75
2022/02/11 09:22:54;;;;;;;0.70;0.70;;;-0.80;99.90;;;;;;5046570;28;20207;-75
2022/02/11 09:25:20;;;;;;;0.70;0.70;;;-0.70;99.90;;;;;;5039192;28;20240;-76
2022/02/11 09:27:46;;;;;;;0.70;0.70;;;-0.50;99.90;;;;;;5045050;28;20683;-76
2022/02/11 09:30:15;;;;;;;0.70;0.70;;;-0.30;99.90;;;;;;5046590;28;20209;-76
2022/02/11 09:32:41;;;;;;;0.90;0.90;;;-0.20;99.90;;;;;;5046663;28;20266;-73
2022/02/11 09:35:09;;;;;;;0.70;0.70;;;0.00;99.90;;;;;;5046656;28;20267;-73
2022/02/11 09:37:36;;;;;;;0.65;0.65;;;0.10;99.90;;;;;;5047554;28;20197;-74
2022/02/11 09:40:05;;;;;;;0.70;0.70;;;0.30;99.90;;;;;;5047708;28;20276;-75
2022/02/11 09:42:31;;;;;;;0.60;0.60;;;0.50;99.90;;;;;;5047731;28;20300;-75
2022/02/11 09:44:58;;;;;;;0.70;0.70;;;0.60;99.90;;;;;;5038923;28;20713;-75
2022/02/11 09:47:24;;;;;;;0.70;0.70;;;0.70;99.90;;;;;;5030166;28;20217;-75
2022/02/11 09:49:50;;;;;;;0.70;0.70;;;0.80;99.90;;;;;;5038332;28;20202;-74
2022/02/11 09:52:16;;;;;;;0.60;0.60;;;0.60;99.90;;;;;;5045211;28;20209;-74
2022/02/11 09:54:43;;;;;;;0.70;0.70;;;0.70;99.90;;;;;;5045022;28;20201;-74
2022/02/11 09:57:09;;;;;;;0.70;0.70;;;0.80;99.90;;;;;;5046490;28;20781;-74
2022/02/11 09:59:35;;;;;;;0.65;0.65;;;1.00;99.90;;;;;;5046195;28;20226;-74
2022/02/11 10:02:02;;;;;;;0.57;0.57;;;1.10;99.90;;;;;;5047323;28;20278;-75
2022/02/11 10:04:29;;;;;;;0.70;0.70;;;1.30;99.90;;;;;;5047355;28;20210;-74
2022/02/11 10:06:59;;;;;;;0.68;0.68;;;1.50;99.90;;;;;;5048473;28;20264;-74
2022/02/11 10:09:25;;;;;;;0.63;0.63;;;1.50;99.90;;;;;;5048691;28;20207;-74
2022/02/11 10:11:52;;;;;;;0.75;0.75;;;1.70;99.90;;;;;;5032414;28;20238;-74
2022/02/11 10:14:26;;;;;;;0.60;0.60;;;1.80;99.90;;;;;;5049807;28;20214;-75
2022/02/11 10:17:04;;;;;;;1.85;0.98;;;1.70;99.90;;;;;;5018362;28;20198;-74
2022/02/11 10:19:39;;;;;;;0.70;0.70;;;1.60;99.90;;;;;;5033681;28;20194;-73
2022/02/11 10:22:08;;;;;;;0.60;0.60;;;1.70;99.90;;;;;;5026376;28;20224;-74
2022/02/11 10:24:34;;;;;;;0.75;0.75;;;1.70;99.90;;;;;;5051420;28;20285;-73
2022/02/11 10:26:59;;;;;;;0.70;0.70;;;1.60;99.90;;;;;;5051447;28;20240;-73
2022/02/11 10:29:40;;;;;;;0.70;0.70;;;1.70;99.90;;;;;;5034480;28;20206;-74
2022/02/11 10:32:06;;;;;;;0.65;0.65;;;1.90;99.90;;;;;;5050125;28;20209;-74
2022/02/11 10:34:32;;;;;;;0.65;0.65;;;1.90;99.90;;;;;;5034189;28;20582;-74
2022/02/11 10:37:05;;;;;;;0.60;0.60;;;1.90;99.90;;;;;;5051546;28;20268;-74
2022/02/11 10:39:31;;;;;;;0.55;0.55;;;2.00;99.90;;;;;;5049930;28;20197;-75
2022/02/11 10:42:08;;;;;;;0.60;0.60;;;2.10;99.90;;;;;;5050244;28;20245;-74
2022/02/11 10:44:39;;;;;;;0.60;0.60;;;2.20;99.90;;;;;;5034456;28;20252;-74
2022/02/11 10:47:08;;;;;;;0.63;0.63;;;2.40;99.90;;;;;;5049482;28;20198;-75
2022/02/11 10:49:38;;;;;;;0.68;0.68;;;2.50;99.90;;;;;;5049632;28;20233;-75
2022/02/11 10:52:17;;;;;;;0.60;0.60;;;2.60;99.90;;;;;;5047919;28;20227;-76
2022/02/11 10:54:52;;;;;;;0.50;0.50;;;2.70;99.90;;;;;;5048280;28;20682;-76
2022/02/11 10:57:29;;;;;;;0.60;0.60;;;2.70;99.90;;;;;;5049515;28;20707;-75
2022/02/11 10:59:55;;;;;;;0.52;0.52;;;2.70;99.90;;;;;;5034003;28;20218;-75
2022/02/11 11:02:23;;;;;;;0.52;0.52;;;2.70;99.90;;;;;;5051061;28;20247;-75
2022/02/11 11:04:55;;;;;;;0.60;0.60;;;2.60;99.90;;;;;;5047954;28;20217;-75
2022/02/11 11:07:24;;;;;;;1.75;1.65;;;2.60;99.90;;;;;;5050487;28;20560;-74
2022/02/11 11:09:53;;;;;;;0.70;0.70;;;2.60;99.90;;;;;;5041616;28;20206;-73
2022/02/11 11:12:23;;;;;;;0.70;0.70;;;2.70;99.90;;;;;;5047823;28;20217;-74
2022/02/11 11:14:55;;;;;;;0.70;0.70;;;2.60;98.20;;;;;;5048651;28;20193;-75
2022/02/11 11:17:23;;;;;;;0.70;0.70;;;2.50;99.90;;;;;;5044197;28;20210;-75
2022/02/11 11:19:50;;;;;;;0.70;0.70;;;2.40;99.80;;;;;;5046752;28;20197;-75
2022/02/11 11:22:21;;;;;;;0.60;0.60;;;2.40;99.90;;;;;;5046927;28;20216;-75
2022/02/11 11:24:49;;;;;;;0.73;0.73;;;2.50;99.20;;;;;;5036468;28;20582;-76
2022/02/11 11:27:52;;;;;;;0.80;0.80;;;2.40;98.00;;;;;;5045395;28;20205;-75
2022/02/11 11:30:21;;;;;;;0.68;0.68;;;2.40;98.60;;;;;;5034477;28;20228;-75
2022/02/11 11:33:08;;;;;;;0.70;0.70;;;2.50;97.20;;;;;;5048616;28;20556;-75
2022/02/11 11:35:35;;;;;;;0.70;0.70;;;2.50;99.00;;;;;;5031465;28;20559;-76
2022/02/11 11:38:16;;;;;;;0.70;0.70;;;2.70;98.10;;;;;;5048022;28;20202;-76
2022/02/11 11:40:54;;;;;;;0.60;0.60;;;2.90;99.90;;;;;;5014895;28;20662;-76
2022/02/11 11:43:41;;;;;;;0.70;0.70;;;3.20;96.90;;;;;;5013952;28;20202;-75
2022/02/11 11:46:16;;;;;;;0.70;0.70;;;3.40;96.50;;;;;;5035100;28;20681;-76
2022/02/11 11:49:05;;;;;;;0.75;0.75;;;3.60;92.90;;;;;;5048027;28;20656;-76
2022/02/11 11:51:50;;;;;;;0.60;0.60;;;3.60;92.80;;;;;;5047973;28;20209;-75
2022/02/11 11:54:21;;;;;;;0.60;0.60;;;3.30;94.00;;;;;;5049013;28;20197;-75
2022/02/11 11:56:53;;;;;;;0.65;0.65;;;3.30;96.10;;;;;;5047939;28;20204;-77
2022/02/11 11:59:20;;;;;;;0.60;0.60;;;3.30;95.10;;;;;;5043566;28;20221;-76
2022/02/11 12:02:11;;;;;;;0.60;0.60;;;3.60;95.80;;;;;;5034565;28;20205;-76
2022/02/11 12:04:40;;;;;;;0.60;0.60;;;3.50;94.90;;;;;;5048832;28;20213;-77
2022/02/11 12:07:09;;;;;;;0.70;0.70;;;3.50;92.30;;;;;;5047799;28;20213;-77
2022/02/11 12:09:36;;;;;;;0.50;0.50;;;3.50;94.80;;;;;;5047781;28;20609;-79
2022/02/11 12:12:10;;;;;;;0.60;0.60;;;3.20;91.40;;;;;;5048667;28;20681;-77
2022/02/11 12:14:38;;;;;;;0.63;0.63;;;3.10;92.50;;;;;;5040318;28;20288;-78
2022/02/11 12:17:09;;;;;;;0.60;0.60;;;2.90;94.10;;;;;;5045398;28;20194;-77
2022/02/11 12:19:35;;;;;;;0.60;0.60;;;2.70;92.30;;;;;;5045116;28;20247;-77
2022/02/11 12:22:01;;;;;;;0.60;0.60;;;2.30;92.90;;;;;;5046235;28;20194;-76
2022/02/11 12:27:23;;;;;;;0.70;0.70;;;2.30;93.10;;;;;;5032380;28;20216;-76
2022/02/11 12:29:58;;;;;;;0.70;0.70;;;2.30;92.50;;;;;;5031768;28;20240;-77
2022/02/11 12:32:33;;;;;;;0.57;0.57;;;2.10;92.70;;;;;;5047166;28;20209;-76
2022/02/11 12:35:02;;;;;;;0.60;0.60;;;2.10;92.00;;;;;;5047048;28;20205;-75
2022/02/11 12:37:31;;;;;;;0.60;0.60;;;2.00;91.70;;;;;;5044925;28;20201;-74
2022/02/11 12:40:25;;;;;;;0.55;0.55;;;2.20;92.30;;;;;;5032247;28;20667;-76
2022/02/11 12:43:06;;;;;;;0.70;0.70;;;2.20;90.80;;;;;;5043269;28;20217;-78
2022/02/11 12:45:34;;;;;;;0.60;0.60;;;2.30;90.50;;;;;;5045721;28;20197;-78
2022/02/11 12:48:00;;;;;;;0.70;0.70;;;2.40;90.90;;;;;;5044749;28;20210;-76
2022/02/11 12:50:30;;;;;;;0.60;0.60;;;2.70;89.20;;;;;;5045660;28;20197;-76
2022/02/11 12:53:01;;;;;;;0.60;0.60;;;3.10;90.70;;;;;;5048011;28;20580;-76
2022/02/11 12:55:27;;;;;;;0.68;0.68;;;3.20;90.90;;;;;;5046940;28;20310;-75
2022/02/11 12:57:57;;;;;;;0.60;0.60;;;3.00;89.40;;;;;;5047975;28;20757;-76
2022/02/11 13:00:25;;;;;;;5.72;2.35;;;2.80;90.60;;;;;;5047918;28;20218;-77
2022/02/11 13:02:55;;;;;;;0.70;0.70;;;2.60;92.20;;;;;;5029273;28;20673;-76
2022/02/11 13:05:24;;;;;;;0.55;0.55;;;2.40;91.60;;;;;;5046025;28;20572;-75
2022/02/11 13:07:52;;;;;;;0.70;0.70;;;2.30;92.10;;;;;;5015028;28;20705;-74
2022/02/11 13:10:24;;;;;;;0.70;0.70;;;2.60;93.50;;;;;;5037376;28;20206;-74
2022/02/11 13:12:52;;;;;;;0.70;0.70;;;2.50;92.60;;;;;;5048086;28;20213;-74
2022/02/11 13:15:19;;;;;;;0.80;0.80;;;2.20;94.10;;;;;;5047862;28;20589;-76
2022/02/11 13:17:47;;;;;;;0.70;0.70;;;1.90;94.50;;;;;;5049074;28;20710;-73
2022/02/11 13:20:21;;;;;;;0.70;0.70;;;1.70;94.20;;;;;;5046688;28;20277;-73
2022/02/11 13:22:50;;;;;;;0.70;0.70;;;1.50;94.10;;;;;;5047843;28;20262;-73
2022/02/11 13:25:18;;;;;;;1.00;1.00;;;1.40;94.60;;;;;;5047704;28;20205;-73
2022/02/11 13:27:56;;;;;;;0.80;0.80;;;1.30;95.20;;;;;;5045369;28;20205;-73
2022/02/11 13:30:27;;;;;;;0.60;0.60;;;1.20;98.00;;;;;;5047637;28;20228;-73
2022/02/11 13:32:55;;;;;;;0.60;0.60;;;1.10;95.60;;;;;;5046699;28;20213;-73
2022/02/11 13:35:22;;;;;;;0.93;0.90;;;1.10;96.00;;;;;;5044090;28;20208;-72
2022/02/11 13:37:51;;;;;;;0.70;0.70;;;1.00;94.90;;;;;;5044882;28;20573;-74
2022/02/11 13:40:27;;;;;;;0.60;0.60;;;1.00;95.30;;;;;;5046200;28;20236;-74
2022/02/11 13:43:07;;;;;;;0.70;0.70;;;0.90;95.90;;;;;;5049233;28;20219;-73
2022/02/11 13:45:53;;;;;;;0.70;0.70;;;0.90;95.80;;;;;;5048242;28;20209;-74
2022/02/11 13:48:20;;;;;;;0.60;0.60;;;1.00;95.20;;;;;;5050633;28;20205;-74
2022/02/11 13:50:55;;;;;;;0.70;0.70;;;0.90;96.20;;;;;;5050873;28;20225;-74
2022/02/11 13:53:31;;;;;;;0.70;0.70;;;0.80;95.80;;;;;;5050512;28;20201;-74
2022/02/11 13:55:57;;;;;;;2.45;0.98;;;0.80;96.40;;;;;;5049324;28;20228;-74
2022/02/11 13:58:23;;;;;;;0.80;0.80;;;0.70;98.20;;;;;;5051569;28;20277;-73
2022/02/11 14:00:48;;;;;;;0.80;0.80;;;0.60;96.90;;;;;;5051063;28;20735;-74
2022/02/11 14:03:29;;;;;;;0.68;0.68;;;0.60;98.20;;;;;;5047809;28;20202;-73
2022/02/11 14:06:01;;;;;;;0.60;0.60;;;0.50;99.60;;;;;;5047277;28;20603;-74
2022/02/11 14:08:45;;;;;;;0.80;0.80;;;0.40;98.60;;;;;;5046589;28;20206;-74
2022/02/11 14:11:13;;;;;;;0.88;0.88;;;0.30;99.90;;;;;;5048061;28;20598;-73
2022/02/11 14:13:39;;;;;;;0.70;0.70;;;0.20;99.90;;;;;;5047492;28;20677;-73
2022/02/11 14:16:06;;;;;;;0.70;0.70;;;0.20;99.00;;;;;;5049405;28;20659;-73
2022/02/11 14:18:31;;;;;;;0.70;0.70;;;0.30;99.70;;;;;;5049823;28;20205;-73
2022/02/11 14:20:57;;;;;;;0.70;0.70;;;0.10;99.90;;;;;;5050872;28;20193;-73
2022/02/11 14:23:24;;;;;;;0.60;0.60;;;0.10;99.90;;;;;;5049621;28;20633;-73
2022/02/11 14:25:50;;;;;;;0.68;0.68;;;0.00;99.90;;;;;;5048477;28;20568;-73
2022/02/11 14:28:17;;;;;;;0.60;0.60;;;-0.10;99.90;;;;;;5049695;28;20214;-73
2022/02/11 14:30:44;;;;;;;0.70;0.70;;;-0.20;99.90;;;;;;5048182;28;20205;-73
2022/02/11 14:33:11;;;;;;;0.70;0.70;;;-0.20;99.90;;;;;;5046376;28;20205;-73
2022/02/11 14:35:38;;;;;;;0.70;0.70;;;-0.20;99.90;;;;;;5047101;28;20735;-73
2022/02/11 14:38:04;;;;;;;0.80;0.80;;;-0.20;99.90;;;;;;5049552;28;20724;-73
2022/02/11 14:40:32;;;;;;;0.70;0.70;;;-0.30;99.90;;;;;;5050317;28;20236;-73
2022/02/11 14:43:04;;;;;;;0.70;0.70;;;-0.30;99.90;;;;;;5049472;28;20198;-73
2022/02/11 14:45:30;;;;;;;0.60;0.60;;;-0.30;99.90;;;;;;5050562;28;20220;-73
2022/02/11 14:47:56;;;;;;;0.70;0.70;;;-0.30;99.90;;;;;;5017087;28;20718;-73
2022/02/11 14:50:22;;;;;;;0.60;0.60;;;-0.40;99.90;;;;;;5050645;28;20331;-73
2022/02/11 14:52:48;;;;;;;0.80;0.80;;;-0.40;99.90;;;;;;5050040;28;20209;-73
2022/02/11 14:55:13;;;;;;;0.70;0.70;;;-0.50;99.90;;;;;;5049956;28;20206;-73
2022/02/11 14:57:39;;;;;;;0.60;0.60;;;-0.70;99.90;;;;;;5050169;28;20684;-73
2022/02/11 15:00:05;;;;;;;0.65;0.65;;;-0.90;99.90;;;;;;5048939;28;20633;-73
2022/02/11 15:02:32;;;;;;;0.70;0.70;;;-1.10;99.90;;;;;;5044013;28;20255;-73
2022/02/11 15:04:59;;;;;;;0.70;0.70;;;-1.20;99.90;;;;;;5045223;28;20681;-73
2022/02/11 15:07:25;;;;;;;0.80;0.80;;;-1.40;99.90;;;;;;5046443;28;20205;-73
2022/02/11 15:09:50;;;;;;;0.70;0.70;;;-1.40;99.90;;;;;;5040444;28;20206;-72
2022/02/11 15:12:16;;;;;;;0.80;0.80;;;-1.40;99.90;;;;;;5040214;28;20228;-72
2022/02/11 15:14:42;;;;;;;0.65;0.65;;;-1.60;99.90;;;;;;5048836;28;20233;-72
2022/02/11 15:17:08;;;;;;;0.80;0.80;;;-1.70;99.90;;;;;;5043286;28;20198;-72
2022/02/11 15:19:34;;;;;;;0.73;0.73;;;-1.90;99.90;;;;;;5039155;28;20631;-73
2022/02/11 15:22:00;;;;;;;0.70;0.70;;;-2.00;99.90;;;;;;5049792;28;20189;-73
2022/02/11 15:24:26;;;;;;;0.60;0.60;;;-2.10;99.90;;;;;;5047174;28;20676;-73
2022/02/11 15:26:51;;;;;;;0.80;0.80;;;-2.10;99.90;;;;;;5049782;28;20197;-72
2022/02/11 15:29:17;;;;;;;0.80;0.80;;;-2.20;99.90;;;;;;5047938;28;20205;-72
2022/02/11 15:31:43;;;;;;;0.70;0.70;;;-2.40;99.90;;;;;;5048177;28;20209;-73
2022/02/11 15:34:10;;;;;;;0.80;0.80;;;-2.50;99.90;;;;;;5049680;28;20662;-72
2022/02/11 15:36:37;;;;;;;0.70;0.70;;;-2.60;99.90;;;;;;5030974;28;20723;-72
2022/02/11 15:39:04;;;;;;;0.73;0.73;;;-2.60;99.90;;;;;;5048856;28;20193;-73
2022/02/11 15:41:29;;;;;;;0.80;0.80;;;-2.70;99.90;;;;;;5034276;28;20607;-72
2022/02/11 15:43:55;;;;;;;0.70;0.70;;;-2.80;99.90;;;;;;5047760;28;20262;-72
2022/02/11 15:46:21;;;;;;;1.15;1.10;;;-2.90;99.90;;;;;;5032147;28;20328;-72
2022/02/11 15:48:47;;;;;;;0.80;0.80;;;-2.90;99.90;;;;;;5045492;28;20293;-71
2022/02/11 15:51:15;;;;;;;0.80;0.80;;;-2.90;99.90;;;;;;5017295;28;20238;-70
2022/02/11 15:53:41;;;;;;;0.80;0.80;;;-3.00;99.90;;;;;;5046659;28;20289;-70
2022/02/11 15:56:08;;;;;;;0.80;0.80;;;-3.10;99.90;;;;;;5048107;28;20292;-69
2022/02/11 15:58:34;;;;;;;0.80;0.80;;;-3.20;99.90;;;;;;5044742;28;20210;-70
2022/02/11 16:00:59;;;;;;;0.80;0.80;;;-3.20;99.90;;;;;;5043105;28;20703;-70
2022/02/11 16:03:26;;;;;;;0.70;0.70;;;-3.30;99.90;;;;;;5048225;28;20206;-71
2022/02/11 16:05:55;;;;;;;0.80;0.80;;;-3.40;99.90;;;;;;5047505;28;20298;-73
2022/02/11 16:08:20;;;;;;;0.80;0.80;;;-3.40;99.90;;;;;;5048662;28;20560;-71
2022/02/11 16:10:46;;;;;;;0.80;0.80;;;-3.50;99.90;;;;;;5042890;28;20204;-70
2022/02/11 16:13:12;;;;;;;0.80;0.80;;;-3.50;99.90;;;;;;5039771;28;20255;-70
2022/02/11 16:15:38;;;;;;;0.80;0.80;;;-3.60;99.90;;;;;;5035640;28;20217;-70
2022/02/11 16:18:03;;;;;;;0.75;0.75;;;-3.50;99.90;;;;;;5047600;28;20267;-70
2022/02/11 16:20:30;;;;;;;0.70;0.70;;;-3.50;99.90;;;;;;5046186;28;20749;-71
2022/02/11 16:22:57;;;;;;;0.80;0.80;;;-3.60;99.90;;;;;;5047588;28;20285;-71
2022/02/11 16:25:24;;;;;;;0.70;0.70;;;-3.70;99.90;;;;;;5047038;28;20198;-70
2022/02/11 16:27:53;;;;;;;0.80;0.80;;;-3.70;99.90;;;;;;5048579;28;20198;-70
2022/02/11 16:30:20;;;;;;;0.80;0.80;;;-3.80;99.90;;;;;;5046448;28;20210;-71
2022/02/11 16:32:46;;;;;;;0.80;0.80;;;-3.80;99.90;;;;;;5015195;28;20210;-69
2022/02/11 16:35:12;;;;;;;0.82;0.82;;;-3.90;99.90;;;;;;5048975;28;20589;-70
2022/02/11 16:37:37;;;;;;;0.70;0.70;;;-3.90;99.90;;;;;;5049504;28;20216;-71
2022/02/11 16:40:06;;;;;;;0.80;0.80;;;-4.00;99.90;;;;;;5047815;28;20614;-70
2022/02/11 16:42:33;;;;;;;0.80;0.80;;;-4.00;99.90;;;;;;5046144;28;20205;-70
2022/02/11 16:44:59;;;;;;;1.00;1.00;;;-4.10;99.90;;;;;;5048349;28;20588;-69
2022/02/11 16:47:25;;;;;;;0.80;0.80;;;-4.10;99.90;;;;;;5045725;28;20212;-70
2022/02/11 16:49:52;;;;;;;0.80;0.80;;;-4.10;99.90;;;;;;5045148;28;20216;-70